Time;durP1;ratioP1;P1;durP2;ratioP2;P2;SDS_P1;SDS_P2;PMS_P1;PMS_P2;Temp;Humidity;BMP_temperature;BMP_pressure;BME280_temperature;BME280_humidity;BME280_pressure;Samples;Min_cycle;Max_cycle;Signal;HPM_P1;HPM_P2
2023/09/13 00:01:57;;;;;;;0.10;0.10;;;;;;;11.77;82.68;100331.47;4979063;28;20039;-71
2023/09/13 00:04:24;;;;;;;0.10;0.10;;;;;;;11.80;81.59;100329.28;4981341;28;20049;-71
2023/09/13 00:06:51;;;;;;;;;;;;;;;11.73;80.99;100330.38;4983296;28;20046;-71
2023/09/13 00:09:17;;;;;;;0.10;0.10;;;;;;;11.65;81.33;100330.06;4982390;28;20309;-71
2023/09/13 00:11:45;;;;;;;0.10;0.10;;;;;;;11.61;81.58;100333.31;4980692;28;20058;-72
2023/09/13 00:14:10;;;;;;;;;;;;;;;11.60;81.66;100334.41;4966731;28;20050;-71
2023/09/13 00:16:36;;;;;;;0.08;0.08;;;;;;;11.55;81.25;100331.69;4980930;28;19941;-71
2023/09/13 00:19:04;;;;;;;0.10;0.10;;;;;;;11.45;81.88;100337.09;4980345;28;20042;-71
2023/09/13 00:21:31;;;;;;;0.10;0.10;;;;;;;11.39;82.25;100336.25;4981687;28;20073;-71
2023/09/13 00:23:58;;;;;;;0.10;0.10;;;;;;;11.35;82.79;100344.19;4980677;28;20038;-71
2023/09/13 00:26:25;;;;;;;0.05;0.05;;;;;;;11.36;82.84;100336.78;4978532;28;20070;-71
2023/09/13 00:28:53;;;;;;;0.10;0.10;;;;;;;11.34;83.03;100333.50;4979980;28;20062;-71
2023/09/13 00:31:20;;;;;;;0.10;0.10;;;;;;;11.29;83.07;100334.28;4980891;28;20555;-71
2023/09/13 00:33:46;;;;;;;0.10;0.10;;;;;;;11.30;83.38;100329.66;4980636;28;20074;-71
2023/09/13 00:36:12;;;;;;;0.10;0.10;;;;;;;11.34;83.48;100333.50;4981131;28;20057;-71
2023/09/13 00:38:38;;;;;;;0.10;0.10;;;;;;;11.31;83.48;100332.09;4979868;28;20050;-72
2023/09/13 00:41:05;;;;;;;0.00;0.00;;;;;;;11.29;84.37;100330.75;4981993;28;20146;-72
2023/09/13 00:43:32;;;;;;;0.10;0.10;;;;;;;11.33;84.50;100337.34;4980192;28;20043;-72
2023/09/13 00:45:59;;;;;;;0.00;0.00;;;;;;;11.32;84.70;100336.53;4981657;28;20506;-72
2023/09/13 00:48:28;;;;;;;0.10;0.10;;;;;;;11.29;84.19;100331.56;4979951;28;20050;-71
2023/09/13 00:50:55;;;;;;;0.10;0.10;;;;;;;11.27;84.42;100344.69;4981754;28;20069;-71
2023/09/13 00:53:23;;;;;;;0.10;0.10;;;;;;;11.14;84.71;100320.53;4978952;28;20050;-69
2023/09/13 00:55:50;;;;;;;;;;;;;;;11.23;84.54;100340.00;4978112;28;20046;-71
2023/09/13 00:58:16;;;;;;;0.00;0.00;;;;;;;11.21;84.43;100341.09;4981631;28;19925;-72
2023/09/13 01:00:42;;;;;;;0.10;0.10;;;;;;;11.24;84.35;100339.75;4980135;28;20046;-71
2023/09/13 01:03:11;;;;;;;0.10;0.10;;;;;;;11.21;84.31;100340.28;4981373;28;20093;-72
2023/09/13 01:05:37;;;;;;;0.10;0.10;;;;;;;11.18;84.48;100340.84;4981586;28;20050;-72
2023/09/13 01:08:04;;;;;;;0.10;0.10;;;;;;;11.16;84.65;100341.09;4982919;28;20050;-72
2023/09/13 01:10:30;;;;;;;0.10;0.10;;;;;;;11.17;85.37;100330.97;4977172;28;20038;-70
2023/09/13 01:12:58;;;;;;;;;;;;;;;11.15;85.71;100333.97;4979329;28;20113;-71
2023/09/13 01:15:26;;;;;;;0.10;0.10;;;;;;;11.14;85.23;100326.00;4977946;28;19932;-72
2023/09/13 01:17:58;;;;;;;0.10;0.10;;;;;;;11.10;85.09;100335.84;4980789;28;20046;-72
2023/09/13 01:20:44;;;;;;;0.10;0.10;;;;;;;11.05;85.34;100334.75;4980687;28;20042;-72
2023/09/13 01:23:33;;;;;;;0.05;0.05;;;;;;;11.05;85.44;100334.75;4979977;28;20047;-72
2023/09/13 01:26:07;;;;;;;0.10;0.10;;;;;;;11.03;85.67;100339.66;4982447;28;20496;-71
2023/09/13 01:28:38;;;;;;;0.10;0.10;;;;;;;10.98;85.69;100336.88;4977139;28;20038;-72
2023/09/13 01:31:06;;;;;;;0.10;0.10;;;;;;;10.96;85.86;100338.25;4982203;28;20047;-71
2023/09/13 01:33:33;;;;;;;0.10;0.10;;;;;;;10.92;85.99;100343.41;4982159;28;20126;-71
2023/09/13 01:35:59;;;;;;;0.10;0.10;;;;;;;10.88;86.20;100343.09;4985003;28;20054;-72
2023/09/13 01:38:26;;;;;;;0.10;0.10;;;;;;;10.77;86.55;100339.47;4985657;28;20053;-72
2023/09/13 01:40:55;;;;;;;0.10;0.10;;;;;;;10.74;86.70;100342.75;4985587;28;20161;-70
2023/09/13 01:43:22;;;;;;;0.10;0.10;;;;;;;10.69;86.95;100352.81;4988243;28;20061;-69
2023/09/13 01:45:51;;;;;;;0.10;0.10;;;;;;;10.58;87.43;100338.25;4985474;28;20058;-69
2023/09/13 01:48:18;;;;;;;0.10;0.10;;;;;;;10.59;87.50;100351.66;4986800;28;20583;-71
2023/09/13 01:50:47;;;;;;;0.10;0.10;;;;;;;10.55;88.09;100352.44;4982209;28;20420;-71
2023/09/13 01:53:14;;;;;;;0.10;0.10;;;;;;;10.54;88.17;100353.53;4984758;28;20047;-71
2023/09/13 01:55:40;;;;;;;0.10;0.10;;;;;;;10.49;88.43;100343.38;4982285;28;20050;-71
2023/09/13 01:58:06;;;;;;;0.10;0.10;;;;;;;10.49;88.73;100351.59;4982427;28;20042;-71
2023/09/13 02:00:32;;;;;;;0.00;0.00;;;;;;;10.45;88.52;100354.00;4964422;28;20046;-71
2023/09/13 02:03:00;;;;;;;0.10;0.10;;;;;;;10.40;88.63;100356.69;4982384;28;20490;-71
2023/09/13 02:05:26;;;;;;;0.10;0.10;;;;;;;10.39;88.81;100359.66;4984630;28;20050;-71
2023/09/13 02:07:52;;;;;;;0.00;0.00;;;;;;;10.36;89.02;100361.81;4983475;28;20058;-72
2023/09/13 02:10:19;;;;;;;0.00;0.00;;;;;;;10.35;89.14;100364.81;4984242;28;20069;-71
2023/09/13 02:12:45;;;;;;;0.10;0.10;;;;;;;10.30;89.20;100362.03;4983175;28;20575;-70
2023/09/13 02:15:12;;;;;;;0.10;0.10;;;;;;;10.27;89.61;100363.38;4983415;28;20054;-70
2023/09/13 02:17:38;;;;;;;0.10;0.10;;;;;;;10.21;89.47;100353.47;4986188;28;20065;-71
2023/09/13 02:20:11;;;;;;;0.00;0.00;;;;;;;10.20;89.65;100357.31;4985570;28;20046;-71
2023/09/13 02:22:38;;;;;;;0.00;0.00;;;;;;;10.19;89.63;100359.19;4984238;28;20050;-72
2023/09/13 02:25:05;;;;;;;0.10;0.10;;;;;;;10.18;89.93;100363.00;4983768;28;20525;-69
2023/09/13 02:27:34;;;;;;;0.00;0.00;;;;;;;10.16;90.04;100358.91;4984215;28;20104;-69
2023/09/13 02:30:04;;;;;;;0.10;0.10;;;;;;;10.13;90.63;100359.41;4983825;28;20055;-69
2023/09/13 02:32:31;;;;;;;0.10;0.10;;;;;;;10.16;91.36;100357.00;4983619;28;20517;-69
2023/09/13 02:34:58;;;;;;;0.10;0.10;;;;;;;10.16;92.13;100351.53;4968510;28;20076;-69
2023/09/13 02:37:27;;;;;;;0.10;0.10;;;;;;;10.15;92.39;100354.53;4983207;28;20118;-69
2023/09/13 02:39:54;;;;;;;0.10;0.10;;;;;;;10.19;92.68;100353.72;4981878;28;20059;-69
2023/09/13 02:42:21;;;;;;;0.00;0.00;;;;;;;10.19;93.32;100353.72;4980474;28;20043;-69
2023/09/13 02:44:47;;;;;;;0.10;0.10;;;;;;;10.15;92.83;100349.88;4984493;28;20331;-69
2023/09/13 02:47:13;;;;;;;0.10;0.10;;;;;;;10.15;92.59;100354.53;4985378;28;20050;-69
2023/09/13 02:49:40;;;;;;;0.00;0.00;;;;;;;10.15;92.84;100354.53;4985348;28;20516;-68
2023/09/13 02:52:06;;;;;;;0.10;0.10;;;;;;;10.16;92.44;100347.97;4982971;28;20109;-68
2023/09/13 02:54:34;;;;;;;0.00;0.00;;;;;;;10.10;92.04;100340.81;4981726;28;20057;-69
2023/09/13 02:57:00;;;;;;;0.10;0.10;;;;;;;10.15;91.72;100346.34;4982450;28;20080;-70
2023/09/13 02:59:31;;;;;;;0.10;0.10;;;;;;;10.13;91.53;100354.78;4982736;28;20050;-69
2023/09/13 03:01:57;;;;;;;;;;;;;;;10.11;92.01;100356.09;4979905;28;20058;-70
2023/09/13 03:04:23;;;;;;;0.10;0.10;;;;;;;10.06;91.50;100357.72;4983702;28;20381;-69
2023/09/13 03:06:50;;;;;;;0.10;0.10;;;;;;;10.04;91.16;100353.59;4964160;28;20363;-70
2023/09/13 03:09:17;;;;;;;0.10;0.10;;;;;;;9.95;91.37;100345.03;4982359;28;20053;-70
2023/09/13 03:11:45;;;;;;;0.10;0.10;;;;;;;10.10;91.50;100357.19;4982714;28;20084;-69
2023/09/13 03:14:11;;;;;;;0.10;0.10;;;;;;;10.12;91.28;100361.34;4982187;28;20052;-69
2023/09/13 03:16:37;;;;;;;0.10;0.10;;;;;;;10.14;91.60;100358.31;4981944;28;20082;-70
2023/09/13 03:19:04;;;;;;;0.10;0.10;;;;;;;10.18;91.82;100362.22;4982638;28;20072;-69
2023/09/13 03:21:36;;;;;;;0.10;0.10;;;;;;;10.21;91.52;100364.41;4981668;28;20530;-69
2023/09/13 03:24:05;;;;;;;0.10;0.10;;;;;;;10.23;91.36;100358.72;4982283;28;20509;-69
2023/09/13 03:26:32;;;;;;;0.03;0.03;;;;;;;10.27;91.02;100359.84;4967454;28;20050;-69
2023/09/13 03:29:00;;;;;;;0.10;0.10;;;;;;;10.30;90.94;100359.31;4981586;28;20121;-69
2023/09/13 03:31:27;;;;;;;0.10;0.10;;;;;;;10.25;90.30;100349.16;4949721;28;20112;-70
2023/09/13 03:33:57;;;;;;;0.10;0.10;;;;;;;10.29;90.56;100363.13;4981026;28;20165;-69
2023/09/13 03:36:29;;;;;;;0.10;0.10;;;;;;;10.32;90.18;100366.16;4980503;28;20599;-71
2023/09/13 03:38:58;;;;;;;0.10;0.10;;;;;;;10.34;90.23;100369.47;4982786;28;20057;-70
2023/09/13 03:41:26;;;;;;;0.10;0.10;;;;;;;10.38;90.16;100363.47;4980510;28;20073;-70
2023/09/13 03:43:52;;;;;;;0.03;0.03;;;;;;;10.40;89.88;100372.22;4981855;28;20046;-71
2023/09/13 03:46:20;;;;;;;0.10;0.10;;;;;;;10.37;89.29;100370.84;4983441;28;20143;-71
2023/09/13 03:48:50;;;;;;;0.15;0.15;;;;;;;10.41;89.20;100372.03;4983916;28;20057;-70
2023/09/13 03:51:16;;;;;;;0.10;0.10;;;;;;;10.45;89.35;100372.31;4982453;28;20144;-71
2023/09/13 03:53:43;;;;;;;0.10;0.10;;;;;;;10.47;88.86;100381.09;4947010;28;20043;-72
2023/09/13 03:56:09;;;;;;;0.20;0.10;;;;;;;10.47;88.69;100373.69;4982691;28;20064;-72
2023/09/13 03:58:36;;;;;;;0.00;0.00;;;;;;;10.51;88.54;100382.22;4981800;28;20097;-71
2023/09/13 04:01:04;;;;;;;0.10;0.10;;;;;;;10.54;88.27;100380.88;4980545;28;20046;-72
2023/09/13 04:03:32;;;;;;;0.10;0.10;;;;;;;10.57;88.24;100389.38;4963894;28;20105;-72
2023/09/13 04:05:59;;;;;;;0.10;0.10;;;;;;;10.63;88.01;100380.13;4964494;28;20061;-70
2023/09/13 04:08:26;;;;;;;0.10;0.10;;;;;;;10.61;87.62;100376.84;4986723;23;20428;-71
2023/09/13 04:10:52;;;;;;;0.10;0.10;;;;;;;10.72;nan;100376.91;5000816;28;20056;-71
2023/09/13 04:13:19;;;;;;;0.10;0.10;;;;;;;10.78;87.22;100384.88;4972129;28;20061;-72
2023/09/13 04:15:45;;;;;;;0.10;0.10;;;;;;;10.84;87.09;100391.22;5004550;28;20493;-72
2023/09/13 04:18:13;;;;;;;0.10;0.10;;;;;;;10.89;86.71;100391.25;5003443;28;20042;-69
2023/09/13 04:20:43;;;;;;;0.10;0.10;;;;;;;10.96;86.29;100395.69;4966288;28;20397;-70
2023/09/13 04:23:09;;;;;;;0.10;0.10;;;;;;;11.04;85.90;100400.66;5002636;28;20148;-70
2023/09/13 04:25:38;;;;;;;0.10;0.10;;;;;;;11.10;85.67;100401.53;5005537;28;20073;-70
2023/09/13 04:28:07;;;;;;;0.10;0.10;;;;;;;11.13;85.13;100395.53;5003300;28;20151;-70
2023/09/13 04:30:34;;;;;;;0.10;0.10;;;;;;;11.18;85.22;100396.38;4987837;28;20176;-69
2023/09/13 04:33:02;;;;;;;;;;;;;;;11.24;85.02;100399.97;4986794;28;20060;-70
2023/09/13 04:35:28;;;;;;;0.22;0.10;;;;;;;11.27;84.17;100396.69;5001731;28;19930;-69
2023/09/13 04:37:57;;;;;;;0.15;0.15;;;;;;;11.40;83.75;100395.44;5015283;28;20069;-69
2023/09/13 04:40:23;;;;;;;0.10;0.10;;;;;;;11.48;83.50;100397.63;4969714;28;20505;-71
2023/09/13 04:42:56;;;;;;;0.10;0.10;;;;;;;11.55;83.42;100402.88;5001987;28;20085;-71
2023/09/13 04:45:24;;;;;;;0.10;0.10;;;;;;;11.57;83.53;100397.16;5001788;28;20060;-70
2023/09/13 04:47:50;;;;;;;0.10;0.10;;;;;;;11.63;83.17;100396.06;4982265;28;20521;-71
2023/09/13 04:50:17;;;;;;;0.10;0.10;;;;;;;11.72;82.92;100391.72;5003798;28;20694;-72
2023/09/13 04:52:44;;;;;;;0.20;0.20;;;;;;;11.82;82.29;100390.09;4977608;28;20072;-69
2023/09/13 04:55:12;;;;;;;0.10;0.10;;;;;;;11.84;82.32;100386.00;4999739;28;20053;-70
2023/09/13 04:57:38;;;;;;;0.10;0.10;;;;;;;11.98;81.82;100391.78;5002206;28;20068;-71
2023/09/13 05:00:10;;;;;;;0.10;0.10;;;;;;;12.09;81.53;100386.38;5003545;28;20639;-71
2023/09/13 05:02:38;;;;;;;0.20;0.20;;;;;;;12.04;80.89;100368.84;4983887;28;20122;-71
2023/09/13 05:05:04;;;;;;;;;;;;;;;12.32;81.00;100387.78;5004566;28;20528;-70
2023/09/13 05:07:30;;;;;;;0.10;0.10;;;;;;;12.44;80.21;100390.28;5004130;28;20498;-71
2023/09/13 05:09:57;;;;;;;0.10;0.10;;;;;;;12.46;79.79;100386.16;5008280;28;20057;-70
2023/09/13 05:12:24;;;;;;;0.20;0.20;;;;;;;12.55;79.99;100394.69;5005948;28;20120;-69
2023/09/13 05:14:50;;;;;;;;;;;;;;;12.59;79.96;100389.47;5008360;28;20593;-69
2023/09/13 05:17:18;;;;;;;0.20;0.20;;;;;;;12.62;79.13;100392.47;5007076;28;19926;-71
2023/09/13 05:19:46;;;;;;;0.70;0.20;;;;;;;12.76;78.63;100395.50;5005295;28;20046;-72
2023/09/13 05:22:13;;;;;;;0.20;0.20;;;;;;;12.84;78.28;100399.63;5002830;28;20140;-72
2023/09/13 05:24:39;;;;;;;0.20;0.20;;;;;;;12.90;77.96;100383.97;4990242;28;20052;-69
2023/09/13 05:27:06;;;;;;;0.10;0.10;;;;;;;13.07;77.80;100389.16;4971831;28;20504;-71
2023/09/13 05:29:34;;;;;;;0.20;0.20;;;;;;;13.13;77.17;100393.53;5007717;28;20057;-69
2023/09/13 05:32:00;;;;;;;0.20;0.20;;;;;;;13.22;76.99;100392.97;5003363;28;20096;-71
2023/09/13 05:34:27;;;;;;;0.20;0.20;;;;;;;13.25;76.81;100392.41;5000494;28;20049;-71
2023/09/13 05:36:55;;;;;;;0.20;0.20;;;;;;;13.44;76.31;100396.25;5004406;28;20046;-71
2023/09/13 05:39:21;;;;;;;;;;;;;;;13.62;75.80;100396.72;5004219;28;20509;-71
2023/09/13 05:41:49;;;;;;;0.20;0.20;;;;;;;13.81;74.91;100399.66;5005260;28;19929;-71
2023/09/13 05:44:20;;;;;;;0.20;0.20;;;;;;;14.10;73.31;100398.16;4969419;28;20038;-72
2023/09/13 05:46:50;;;;;;;0.20;0.20;;;;;;;14.37;71.92;100389.44;4997264;28;20061;-71
2023/09/13 05:49:17;;;;;;;0.20;0.20;;;;;;;14.56;71.60;100392.34;5006594;28;20149;-71
2023/09/13 05:51:45;;;;;;;0.20;0.20;;;;;;;14.82;70.30;100391.31;5006858;28;20665;-72
2023/09/13 05:54:11;;;;;;;0.20;0.20;;;;;;;14.95;69.52;100393.41;4994269;28;20085;-71
2023/09/13 05:56:40;;;;;;;0.20;0.20;;;;;;;15.02;69.36;100393.88;4997684;28;20050;-71
2023/09/13 05:59:06;;;;;;;0.30;0.30;;;;;;;15.22;68.75;100396.72;5007456;28;20520;-71
2023/09/13 06:01:32;;;;;;;0.20;0.20;;;;;;;15.42;67.96;100387.41;5008456;28;20543;-70
2023/09/13 06:04:01;;;;;;;0.20;0.20;;;;;;;15.60;67.57;100396.84;5005788;28;20511;-71
2023/09/13 06:06:29;;;;;;;0.20;0.20;;;;;;;15.82;66.21;100393.53;5009260;28;20532;-73
2023/09/13 06:08:57;;;;;;;0.30;0.30;;;;;;;15.90;65.25;100392.06;5007738;28;20076;-71
2023/09/13 06:11:24;;;;;;;0.20;0.20;;;;;;;16.02;65.12;100394.41;4996214;28;20081;-72
2023/09/13 06:13:52;;;;;;;0.20;0.20;;;;;;;16.11;64.41;100402.84;4998946;28;20046;-72
2023/09/13 06:16:17;;;;;;;;;;;;;;;16.18;64.32;100394.19;5011640;28;20521;-73
2023/09/13 06:18:43;;;;;;;0.30;0.30;;;;;;;16.35;63.10;100388.13;5007861;28;19925;-71
2023/09/13 06:21:12;;;;;;;0.30;0.30;;;;;;;16.48;61.63;100390.16;5010633;28;20046;-72
2023/09/13 06:23:40;;;;;;;0.30;0.30;;;;;;;16.57;60.70;100388.34;5009384;28;20050;-71
2023/09/13 06:26:07;;;;;;;0.30;0.30;;;;;;;16.72;59.87;100387.25;5010598;28;20053;-71
2023/09/13 06:28:33;;;;;;;0.30;0.30;;;;;;;16.76;59.64;100395.78;5008872;28;20041;-71
2023/09/13 06:31:00;;;;;;;0.30;0.30;;;;;;;16.97;59.25;100395.41;4992831;28;20509;-71
2023/09/13 06:33:27;;;;;;;0.30;0.30;;;;;;;17.11;58.93;100393.53;5009514;28;20046;-71
2023/09/13 06:35:56;;;;;;;0.30;0.30;;;;;;;17.20;58.08;100396.41;5007263;28;20508;-71
2023/09/13 06:38:23;;;;;;;0.30;0.30;;;;;;;17.25;57.32;100392.72;5010294;28;20045;-71
2023/09/13 06:40:51;;;;;;;0.30;0.30;;;;;;;17.29;56.90;100393.75;5010355;28;20046;-71
2023/09/13 06:43:18;;;;;;;0.30;0.30;;;;;;;17.44;56.52;100398.97;5007576;28;20513;-71
2023/09/13 06:45:46;;;;;;;0.20;0.20;;;;;;;17.51;55.66;100400.53;5007589;28;20049;-71
2023/09/13 06:48:13;;;;;;;0.20;0.20;;;;;;;17.62;55.18;100395.59;5009967;28;20054;-71
2023/09/13 06:50:39;;;;;;;0.30;0.30;;;;;;;17.55;55.30;100398.78;5007409;28;20609;-71
2023/09/13 06:53:05;;;;;;;0.30;0.30;;;;;;;17.66;54.61;100397.44;5010038;28;20498;-71
2023/09/13 06:55:33;;;;;;;0.20;0.20;;;;;;;17.74;54.38;100401.44;5010771;28;20108;-71
2023/09/13 06:58:04;;;;;;;0.30;0.30;;;;;;;18.07;53.48;100398.53;5009257;28;20085;-72
2023/09/13 07:00:30;;;;;;;0.30;0.30;;;;;;;18.38;52.55;100403.38;5007501;28;20080;-72
2023/09/13 07:02:57;;;;;;;0.30;0.30;;;;;;;18.36;52.03;100399.28;4991260;28;20069;-71
2023/09/13 07:05:23;;;;;;;0.30;0.30;;;;;;;18.48;51.21;100394.00;5008443;28;20088;-72
2023/09/13 07:07:49;;;;;;;0.30;0.30;;;;;;;18.80;50.37;100403.19;5023736;28;20096;-71
2023/09/13 07:10:16;;;;;;;0.30;0.30;;;;;;;19.08;49.16;100403.06;5008181;28;20046;-71
2023/09/13 07:12:44;;;;;;;0.30;0.30;;;;;;;19.22;49.38;100405.72;5009288;28;20058;-71
2023/09/13 07:15:10;;;;;;;0.30;0.30;;;;;;;19.22;49.24;100396.59;5010413;28;20042;-71
2023/09/13 07:17:36;;;;;;;0.30;0.30;;;;;;;19.52;48.25;100405.22;5005900;28;20528;-72
2023/09/13 07:20:05;;;;;;;0.30;0.30;;;;;;;19.64;47.85;100402.63;5005596;28;20050;-72
2023/09/13 07:22:31;;;;;;;0.30;0.30;;;;;;;19.82;47.98;100402.66;4987398;28;20267;-72
2023/09/13 07:24:57;;;;;;;0.30;0.30;;;;;;;19.98;47.56;100395.56;4995894;28;20046;-72
2023/09/13 07:27:24;;;;;;;0.30;0.30;;;;;;;20.16;46.82;100401.13;5007858;28;20133;-72
2023/09/13 07:29:51;;;;;;;0.30;0.30;;;;;;;20.02;46.71;100401.25;4999139;28;20046;-70
2023/09/13 07:32:18;;;;;;;0.40;0.40;;;;;;;20.18;46.88;100404.41;4989350;28;20129;-72
2023/09/13 07:34:44;;;;;;;0.40;0.40;;;;;;;20.32;46.17;100414.53;5009153;28;20045;-72
2023/09/13 07:37:10;;;;;;;0.35;0.35;;;;;;;20.42;45.90;100410.59;5008474;28;20144;-72
2023/09/13 07:39:38;;;;;;;0.30;0.30;;;;;;;20.68;44.81;100407.81;5008070;28;20140;-72
2023/09/13 07:42:05;;;;;;;0.30;0.30;;;;;;;20.78;44.15;100412.19;5007020;28;20457;-72
2023/09/13 07:44:31;;;;;;;0.38;0.38;;;;;;;20.76;43.71;100398.66;5007635;28;20576;-71
2023/09/13 07:46:59;;;;;;;0.40;0.40;;;;;;;20.93;43.17;100400.59;5008090;28;20057;-72
2023/09/13 07:49:25;;;;;;;0.30;0.30;;;;;;;21.25;42.85;100403.13;5009337;28;20397;-71
2023/09/13 07:51:51;;;;;;;0.30;0.30;;;;;;;21.18;42.09;100409.19;5007616;28;20057;-71
2023/09/13 07:54:17;;;;;;;0.40;0.40;;;;;;;21.07;41.87;100405.97;4990770;28;20575;-71
2023/09/13 07:56:44;;;;;;;0.30;0.30;;;;;;;21.17;41.63;100407.56;5008327;28;20425;-71
2023/09/13 07:59:14;;;;;;;0.30;0.30;;;;;;;21.30;41.52;100404.88;5007657;28;20096;-72
2023/09/13 08:01:40;;;;;;;0.30;0.30;;;;;;;21.65;41.45;100401.97;5004145;28;20050;-71
2023/09/13 08:04:08;;;;;;;0.40;0.40;;;;;;;22.12;40.47;100398.25;4989470;28;20045;-71
2023/09/13 08:06:34;;;;;;;0.30;0.30;;;;;;;22.33;39.68;100398.25;4991297;28;20053;-72
2023/09/13 08:09:00;;;;;;;0.40;0.40;;;;;;;22.37;39.35;100396.41;5008391;28;20085;-72
2023/09/13 08:11:26;;;;;;;0.30;0.30;;;;;;;22.70;38.33;100389.25;4991620;28;20042;-71
2023/09/13 08:13:53;;;;;;;0.40;0.40;;;;;;;23.04;37.61;100392.03;5006377;28;20308;-70
2023/09/13 08:16:19;;;;;;;0.30;0.30;;;;;;;23.21;36.75;100388.22;5007775;28;20140;-72
2023/09/13 08:18:45;;;;;;;0.40;0.40;;;;;;;23.21;36.80;100394.63;5007395;28;20045;-69
2023/09/13 08:21:13;;;;;;;0.40;0.40;;;;;;;23.13;36.26;100397.50;4990325;28;20088;-70
2023/09/13 08:23:39;;;;;;;0.40;0.40;;;;;;;23.08;36.35;100396.53;5006078;28;20579;-69
2023/09/13 08:26:06;;;;;;;0.30;0.30;;;;;;;23.36;35.74;100389.53;5008712;28;20050;-71
2023/09/13 08:28:34;;;;;;;0.40;0.40;;;;;;;23.86;34.40;100389.50;5008598;28;20050;-70
2023/09/13 08:31:01;;;;;;;0.38;0.38;;;;;;;24.13;34.33;100387.97;4990470;28;20509;-70
2023/09/13 08:33:27;;;;;;;0.40;0.40;;;;;;;24.28;34.34;100385.59;4989409;28;20049;-70
2023/09/13 08:35:53;;;;;;;0.40;0.40;;;;;;;24.08;34.83;100375.06;5006635;28;20054;-68
2023/09/13 08:38:21;;;;;;;0.40;0.40;;;;;;;24.28;34.63;100380.00;5007326;28;20077;-70
2023/09/13 08:40:48;;;;;;;0.40;0.40;;;;;;;24.62;34.04;100377.78;5005996;28;20313;-70
2023/09/13 08:43:15;;;;;;;0.40;0.40;;;;;;;25.01;33.58;100371.66;5005898;28;20429;-69
2023/09/13 08:45:42;;;;;;;0.30;0.30;;;;;;;25.35;32.59;100366.50;5006061;28;20573;-69
2023/09/13 08:48:09;;;;;;;0.40;0.40;;;;;;;25.60;32.27;100369.13;5008570;28;20050;-70
2023/09/13 08:50:37;;;;;;;0.40;0.40;;;;;;;25.94;31.18;100365.88;5007876;28;20077;-69
2023/09/13 08:53:05;;;;;;;0.50;0.50;;;;;;;25.88;31.33;100368.94;5004713;28;20539;-69
2023/09/13 08:55:35;;;;;;;0.40;0.40;;;;;;;25.66;31.33;100348.06;5008079;28;20045;-69
2023/09/13 08:58:02;;;;;;;0.40;0.40;;;;;;;25.44;31.40;100361.53;5005534;28;20058;-70
2023/09/13 09:00:33;;;;;;;0.40;0.40;;;;;;;25.27;31.65;100368.31;5004618;28;20081;-69
2023/09/13 09:03:04;;;;;;;0.40;0.40;;;;;;;25.43;31.10;100364.69;5003705;28;20424;-70
2023/09/13 09:05:32;;;;;;;0.40;0.40;;;;;;;25.29;30.97;100357.59;5004789;28;20108;-68
2023/09/13 09:08:00;;;;;;;0.40;0.40;;;;;;;25.41;31.02;100364.22;5007013;28;20056;-70
2023/09/13 09:10:26;;;;;;;0.50;0.50;;;;;;;25.09;30.75;100355.84;5007780;28;20594;-70
2023/09/13 09:12:57;;;;;;;0.50;0.50;;;;;;;24.91;30.76;100367.41;5007138;28;20073;-71
2023/09/13 09:15:25;;;;;;;0.50;0.50;;;;;;;24.83;30.90;100360.00;5005883;28;20088;-71
2023/09/13 09:17:54;;;;;;;0.50;0.50;;;;;;;24.97;30.79;100363.16;5006324;28;20056;-71
2023/09/13 09:20:24;;;;;;;0.50;0.50;;;;;;;25.31;30.57;100360.84;5006420;28;20050;-72
2023/09/13 09:22:50;;;;;;;0.50;0.50;;;;;;;25.51;30.30;100360.09;5007748;28;20156;-72
2023/09/13 09:25:17;;;;;;;0.50;0.50;;;;;;;25.32;30.43;100350.44;5005630;28;20108;-71
2023/09/13 09:27:44;;;;;;;0.60;0.60;;;;;;;25.26;31.06;100357.50;4989481;28;20046;-71
2023/09/13 09:30:14;;;;;;;0.50;0.50;;;;;;;25.28;30.98;100350.34;5007332;28;20099;-71
2023/09/13 09:32:41;;;;;;;0.60;0.60;;;;;;;25.19;30.93;100358.13;5004856;28;20294;-71
2023/09/13 09:35:09;;;;;;;0.60;0.60;;;;;;;25.03;31.28;100353.34;5006304;28;20065;-70
2023/09/13 09:37:36;;;;;;;0.60;0.60;;;;;;;24.88;31.37;100348.53;5007618;28;20065;-70
2023/09/13 09:40:10;;;;;;;0.60;0.60;;;;;;;25.27;31.49;100351.50;5008759;28;20049;-71
2023/09/13 09:42:37;;;;;;;0.60;0.60;;;;;;;25.64;30.72;100347.63;5007453;28;20092;-71
2023/09/13 09:45:04;;;;;;;;;;;;;;;25.92;30.08;100355.03;5008910;28;20038;-71
2023/09/13 09:47:36;;;;;;;0.57;0.57;;;;;;;26.07;29.36;100342.16;5004720;28;19984;-72
2023/09/13 09:50:04;;;;;;;0.60;0.60;;;;;;;26.21;29.21;100347.28;5006527;28;20065;-72
2023/09/13 09:52:30;;;;;;;0.60;0.60;;;;;;;26.56;28.67;100351.16;5008170;28;20147;-71
2023/09/13 09:54:56;;;;;;;0.57;0.57;;;;;;;26.58;28.06;100332.78;5010685;28;20045;-71
2023/09/13 09:57:23;;;;;;;0.60;0.60;;;;;;;27.18;27.75;100345.47;5008546;28;20858;-71
2023/09/13 09:59:50;;;;;;;0.50;0.50;;;;;;;27.29;27.13;100339.22;5010862;28;20344;-72
2023/09/13 10:02:16;;;;;;;0.57;0.57;;;;;;;26.97;27.84;100347.94;5008853;28;20124;-71
2023/09/13 10:04:51;;;;;;;0.60;0.60;;;;;;;27.38;27.33;100350.19;5026651;28;20053;-70
2023/09/13 10:07:17;;;;;;;0.60;0.60;;;;;;;27.53;26.45;100348.44;5011320;28;20534;-70
2023/09/13 10:09:45;;;;;;;0.60;0.60;;;;;;;28.02;26.23;100350.34;5010183;28;20065;-71
2023/09/13 10:12:12;;;;;;;0.60;0.60;;;;;;;28.80;25.62;100348.06;5010179;28;20048;-71
2023/09/13 10:14:40;;;;;;;0.60;0.60;;;;;;;29.05;24.58;100343.88;5009610;28;20042;-71
2023/09/13 10:17:07;;;;;;;0.50;0.50;;;;;;;29.03;24.36;100347.06;5010532;28;20054;-70
2023/09/13 10:19:34;;;;;;;0.40;0.40;;;;;;;29.05;24.17;100335.41;5010616;28;20136;-71
2023/09/13 10:22:03;;;;;;;0.50;0.50;;;;;;;29.03;24.12;100341.41;5008805;28;20046;-71
2023/09/13 10:24:35;;;;;;;0.50;0.50;;;;;;;29.46;24.09;100331.72;5010928;28;20436;-71
2023/09/13 10:27:06;;;;;;;0.50;0.50;;;;;;;29.86;23.14;100333.56;5009691;28;20064;-71
2023/09/13 10:29:39;;;;;;;0.50;0.50;;;;;;;29.45;23.60;100325.28;5010816;28;20332;-69
2023/09/13 10:32:09;;;;;;;0.60;0.60;;;;;;;29.28;23.55;100340.84;5007841;28;20050;-70
2023/09/13 10:34:39;;;;;;;0.60;0.60;;;;;;;29.28;23.92;100338.81;5009845;28;20559;-70
2023/09/13 10:37:11;;;;;;;0.60;0.60;;;;;;;29.92;23.75;100334.00;5008146;28;20048;-70
2023/09/13 10:39:45;;;;;;;0.70;0.70;;;;;;;29.98;23.26;100328.81;5008544;28;20042;-70
2023/09/13 10:42:11;;;;;;;0.70;0.70;;;;;;;30.23;23.09;100330.91;5008315;28;20084;-70
2023/09/13 10:44:38;;;;;;;0.60;0.60;;;;;;;30.37;22.92;100325.31;5009350;28;20504;-70
2023/09/13 10:47:05;;;;;;;;;;;;;;;30.53;22.83;100322.16;5009382;28;20149;-70
2023/09/13 10:49:33;;;;;;;0.70;0.70;;;;;;;30.69;22.94;100318.97;5010596;28;19925;-70
2023/09/13 10:52:00;;;;;;;0.80;0.80;;;;;;;30.89;22.38;100306.50;5006864;28;20049;-70
2023/09/13 10:54:28;;;;;;;0.90;0.90;;;;;;;31.04;22.44;100313.75;5008514;28;20456;-70
2023/09/13 10:56:55;;;;;;;1.00;1.00;;;;;;;31.20;21.83;100313.31;4990426;28;20045;-69
2023/09/13 10:59:24;;;;;;;0.90;0.90;;;;;;;31.41;21.90;100314.56;5008876;28;20173;-70
2023/09/13 11:01:51;;;;;;;0.93;0.93;;;;;;;30.66;22.06;100311.31;5008352;28;20042;-69
2023/09/13 11:04:20;;;;;;;1.00;1.00;;;;;;;31.08;22.07;100319.41;5007407;28;20057;-69
2023/09/13 11:06:48;;;;;;;1.10;1.10;;;;;;;31.76;21.19;100318.50;4991458;28;20096;-70
2023/09/13 11:09:15;;;;;;;1.10;1.10;;;;;;;31.83;21.13;100312.03;5008073;28;20058;-70
2023/09/13 11:11:48;;;;;;;1.10;1.10;;;;;;;32.33;21.10;100319.50;5009207;28;20061;-68
2023/09/13 11:14:19;;;;;;;1.10;1.10;;;;;;;33.40;19.79;100314.66;4989849;28;20531;-69
2023/09/13 11:16:48;;;;;;;1.10;1.10;;;;;;;33.23;19.58;100317.25;5009038;28;20046;-70
2023/09/13 11:19:17;;;;;;;1.20;1.20;;;;;;;33.15;19.89;100325.00;5009603;28;20112;-68
2023/09/13 11:21:49;;;;;;;1.20;1.20;;;;;;;32.71;19.57;100324.53;5007578;28;20053;-70
2023/09/13 11:24:33;;;;;;;1.27;1.20;;;;;;;31.94;20.32;100323.31;5001937;28;20046;-70
2023/09/13 11:27:09;;;;;;;2.10;2.00;;;;;;;31.80;20.41;100319.31;5004388;28;20215;-69
2023/09/13 11:29:41;;;;;;;1.30;1.20;;;;;;;32.64;20.33;100314.06;5009209;28;20054;-71
2023/09/13 11:32:09;;;;;;;1.20;1.20;;;;;;;33.63;19.12;100314.81;4990048;28;20049;-69